Time;durP1;ratioP1;P1;durP2;ratioP2;P2;SDS_P1;SDS_P2;PMS_P1;PMS_P2;Temp;Humidity;BMP_temperature;BMP_pressure;BME280_temperature;BME280_humidity;BME280_pressure;Samples;Min_cycle;Max_cycle;Signal;HPM_P1;HPM_P2
2021/11/20 00:00:59;;;;;;;60.80;26.92;;;9.60;99.90;;;;;;5042468;28;20088;-74
2021/11/20 00:03:26;;;;;;;51.55;25.27;;;9.60;99.90;;;;;;5053393;28;20524;-74
2021/11/20 00:05:55;;;;;;;56.63;26.05;;;9.70;99.90;;;;;;5074160;28;20113;-74
2021/11/20 00:08:22;;;;;;;47.35;25.10;;;9.70;99.90;;;;;;5051364;28;20041;-74
2021/11/20 00:10:57;;;;;;;46.65;25.40;;;9.80;99.90;;;;;;5050602;28;20652;-73
2021/11/20 00:13:24;;;;;;;54.28;26.17;;;9.80;99.90;;;;;;5049088;28;20404;-74
2021/11/20 00:15:54;;;;;;;51.47;26.55;;;9.90;99.90;;;;;;5071179;28;20148;-74
2021/11/20 00:18:23;;;;;;;49.55;24.77;;;9.90;99.90;;;;;;5066944;28;20044;-74
2021/11/20 00:20:56;;;;;;;53.65;26.90;;;9.90;99.90;;;;;;5059258;28;20049;-73
2021/11/20 00:23:35;;;;;;;59.60;27.80;;;10.00;99.90;;;;;;5073819;28;20083;-74
2021/11/20 00:26:09;;;;;;;58.25;26.90;;;10.10;99.90;;;;;;5066449;28;20047;-73
2021/11/20 00:31:24;;;;;;;53.10;28.10;;;10.10;99.90;;;;;;5062389;28;20094;-74
2021/11/20 00:33:50;;;;;;;60.22;28.85;;;10.10;99.90;;;;;;5049449;28;20135;-75
2021/11/20 00:36:16;;;;;;;57.10;28.42;;;10.10;99.90;;;;;;5057134;28;20120;-72
2021/11/20 00:38:44;;;;;;;51.08;28.95;;;10.10;99.90;;;;;;5058811;28;20058;-73
2021/11/20 00:41:19;;;;;;;59.35;29.45;;;10.10;99.90;;;;;;5065942;28;20052;-73
2021/11/20 00:43:47;;;;;;;58.03;29.67;;;10.10;99.90;;;;;;5063987;28;20218;-73
2021/11/20 00:46:15;;;;;;;58.13;30.00;;;10.10;99.90;;;;;;5049688;28;20044;-73
2021/11/20 00:48:42;;;;;;;64.03;32.65;;;10.20;99.90;;;;;;5065073;28;20032;-73
2021/11/20 00:51:10;;;;;;;58.78;31.85;;;10.20;99.90;;;;;;5054330;28;20048;-73
2021/11/20 00:53:37;;;;;;;54.53;31.05;;;10.20;99.90;;;;;;5069373;28;20079;-73
2021/11/20 00:56:05;;;;;;;58.30;31.27;;;10.20;99.90;;;;;;5064792;28;20036;-73
2021/11/20 00:58:32;;;;;;;61.20;31.95;;;10.30;99.90;;;;;;5065490;28;20117;-73
2021/11/20 01:01:01;;;;;;;58.70;31.73;;;10.30;99.90;;;;;;5050597;28;20044;-73
2021/11/20 01:03:29;;;;;;;60.53;31.88;;;10.30;99.90;;;;;;5048437;28;20079;-73
2021/11/20 01:05:56;;;;;;;59.10;32.58;;;10.30;99.90;;;;;;5063722;28;20332;-73
2021/11/20 01:08:24;;;;;;;58.03;32.33;;;10.30;99.90;;;;;;5046388;28;20055;-73
2021/11/20 01:11:04;;;;;;;58.13;31.58;;;10.30;99.90;;;;;;5047029;28;20105;-73
2021/11/20 01:13:30;;;;;;;50.50;30.73;;;10.40;99.90;;;;;;5064005;28;20103;-73
2021/11/20 01:16:00;;;;;;;56.65;31.48;;;10.40;99.90;;;;;;5050886;28;20044;-73
2021/11/20 01:18:27;;;;;;;51.93;31.33;;;10.40;99.90;;;;;;5082531;28;20040;-73
2021/11/20 01:20:53;;;;;;;56.22;31.83;;;10.40;99.90;;;;;;5049017;28;20317;-73
2021/11/20 01:23:22;;;;;;;48.90;30.15;;;10.40;99.90;;;;;;5074337;28;20055;-73
2021/11/20 01:25:49;;;;;;;48.58;29.52;;;10.40;99.90;;;;;;5070130;28;20048;-73
2021/11/20 01:28:16;;;;;;;54.22;31.42;;;10.40;99.90;;;;;;5078146;28;20048;-73
2021/11/20 01:30:43;;;;;;;50.95;29.55;;;10.50;99.90;;;;;;5074089;28;20047;-73
2021/11/20 01:33:09;;;;;;;57.15;31.00;;;10.40;99.90;;;;;;5063114;28;20041;-73
2021/11/20 01:35:35;;;;;;;44.65;29.27;;;10.50;99.90;;;;;;5086431;28;20036;-73
2021/11/20 01:38:01;;;;;;;53.30;29.60;;;10.50;99.90;;;;;;5063474;28;20047;-72
2021/11/20 01:40:31;;;;;;;46.33;28.25;;;10.50;99.90;;;;;;5057904;28;20053;-72
2021/11/20 01:43:01;;;;;;;41.80;27.20;;;10.50;99.90;;;;;;5056719;28;20044;-73
2021/11/20 01:45:37;;;;;;;45.20;27.65;;;10.50;99.90;;;;;;5066159;28;20091;-73
2021/11/20 01:48:35;;;;;;;41.38;26.27;;;10.50;99.90;;;;;;5080559;28;20050;-73
2021/11/20 01:51:11;;;;;;;43.28;26.83;;;10.50;99.90;;;;;;5042742;28;20058;-73
2021/11/20 01:54:02;;;;;;;39.13;26.17;;;10.50;99.90;;;;;;5073683;28;20059;-73
2021/11/20 01:56:44;;;;;;;41.20;27.02;;;10.50;99.90;;;;;;5067903;28;20094;-73
2021/11/20 01:59:13;;;;;;;42.15;26.95;;;10.50;99.90;;;;;;5084488;28;20044;-73
2021/11/20 02:01:48;;;;;;;37.10;26.15;;;10.50;99.90;;;;;;5053269;28;20040;-73
2021/11/20 02:04:51;;;;;;;41.47;27.55;;;10.40;99.90;;;;;;5066238;28;20049;-73
2021/11/20 02:07:51;;;;;;;40.20;27.77;;;10.50;99.90;;;;;;5050977;28;20048;-73
2021/11/20 02:10:36;;;;;;;49.63;27.77;;;10.50;99.90;;;;;;5066450;28;20117;-73
2021/11/20 02:13:18;;;;;;;45.53;29.55;;;10.40;99.90;;;;;;5060320;28;20055;-72
2021/11/20 02:15:46;;;;;;;45.60;28.45;;;10.40;99.90;;;;;;5076028;28;20424;-73
2021/11/20 02:18:14;;;;;;;44.25;28.25;;;10.40;99.90;;;;;;5081396;28;20097;-73
2021/11/20 02:20:52;;;;;;;42.75;29.45;;;10.40;99.90;;;;;;5076094;28;20055;-72
2021/11/20 02:23:17;;;;;;;41.03;29.45;;;10.40;99.90;;;;;;5065712;28;20040;-73
2021/11/20 02:25:43;;;;;;;43.83;29.13;;;10.40;99.90;;;;;;5059191;28;20056;-73
2021/11/20 02:28:09;;;;;;;45.35;28.95;;;10.40;99.90;;;;;;5088091;28;20046;-73
2021/11/20 02:30:41;;;;;;;46.13;30.63;;;10.40;99.90;;;;;;5070321;28;20040;-73
2021/11/20 02:33:15;;;;;;;46.20;29.02;;;10.40;99.90;;;;;;5070642;28;20075;-73
2021/11/20 02:35:45;;;;;;;40.22;28.05;;;10.40;99.90;;;;;;5058752;28;20076;-73
2021/11/20 02:38:13;;;;;;;;;;;10.40;99.90;;;;;;5069624;28;20048;-73
2021/11/20 02:40:40;;;;;;;36.70;28.40;;;10.40;99.90;;;;;;5064075;28;20002;-73
2021/11/20 02:43:06;;;;;;;41.03;28.55;;;10.40;99.90;;;;;;5047840;28;20047;-73
2021/11/20 02:45:41;;;;;;;44.67;29.77;;;10.40;99.90;;;;;;5052539;28;20059;-73
2021/11/20 02:48:07;;;;;;;42.05;28.80;;;10.40;99.90;;;;;;5070819;28;20123;-73
2021/11/20 02:50:44;;;;;;;44.55;29.50;;;10.40;99.90;;;;;;5053132;28;20399;-73
2021/11/20 02:53:21;;;;;;;45.55;30.23;;;10.40;99.90;;;;;;5060686;28;20070;-73
2021/11/20 02:55:50;;;;;;;45.70;30.73;;;10.40;99.90;;;;;;5070131;28;20066;-73
2021/11/20 02:58:22;;;;;;;47.17;29.30;;;10.50;99.90;;;;;;5055788;28;20044;-73
2021/11/20 03:00:57;;;;;;;42.15;29.48;;;10.40;99.90;;;;;;5068706;28;20127;-73
2021/11/20 03:03:23;;;;;;;43.08;28.73;;;10.40;99.90;;;;;;5067416;28;20051;-73
2021/11/20 03:05:50;;;;;;;45.67;29.38;;;10.40;99.90;;;;;;5046997;28;20074;-73
2021/11/20 03:08:15;;;;;;;42.53;28.60;;;10.40;99.90;;;;;;5072327;28;20081;-73
2021/11/20 03:10:42;;;;;;;37.10;28.00;;;10.40;99.90;;;;;;5089070;28;20267;-72
2021/11/20 03:13:08;;;;;;;43.47;28.55;;;10.40;99.90;;;;;;5089004;28;20105;-75
2021/11/20 03:15:33;;;;;;;40.70;27.15;;;10.40;99.90;;;;;;5055453;28;20673;-72
2021/11/20 03:17:59;;;;;;;41.38;27.77;;;10.40;99.90;;;;;;5089729;28;20032;-73
2021/11/20 03:20:26;;;;;;;41.22;28.95;;;10.40;99.90;;;;;;5089554;28;20460;-73
2021/11/20 03:23:06;;;;;;;41.28;27.88;;;10.40;99.90;;;;;;5071922;28;20042;-73
2021/11/20 03:25:32;;;;;;;35.45;27.10;;;10.40;99.90;;;;;;5055507;28;20114;-73
2021/11/20 03:27:59;;;;;;;42.50;27.55;;;10.40;99.90;;;;;;5036563;28;20520;-73
2021/11/20 03:30:25;;;;;;;41.75;27.55;;;10.40;99.90;;;;;;5069383;28;20055;-73
2021/11/20 03:32:51;;;;;;;39.47;26.20;;;10.40;99.90;;;;;;5069253;28;20036;-73
2021/11/20 03:35:17;;;;;;;35.78;26.40;;;10.40;99.90;;;;;;5065680;28;20565;-73
2021/11/20 03:37:43;;;;;;;40.20;26.48;;;10.40;99.90;;;;;;5065118;28;20040;-74
2021/11/20 03:40:11;;;;;;;38.85;26.77;;;10.40;99.90;;;;;;5048165;28;20049;-74
2021/11/20 03:42:37;;;;;;;36.05;26.42;;;10.40;99.90;;;;;;5056750;28;20046;-74
2021/11/20 03:45:06;;;;;;;35.65;25.13;;;10.40;99.90;;;;;;5047171;28;20040;-74
2021/11/20 03:47:31;;;;;;;37.92;26.48;;;10.40;99.90;;;;;;5048161;28;20080;-74
2021/11/20 03:49:57;;;;;;;37.90;26.25;;;10.40;99.90;;;;;;5032052;28;20076;-73
2021/11/20 03:52:24;;;;;;;34.88;25.67;;;10.40;99.90;;;;;;5048177;28;20036;-74
2021/11/20 03:54:50;;;;;;;36.85;25.42;;;10.40;99.90;;;;;;5031090;28;20044;-73
2021/11/20 03:57:17;;;;;;;35.03;25.10;;;10.40;99.90;;;;;;5050333;28;20044;-74
2021/11/20 03:59:43;;;;;;;41.15;25.92;;;10.40;99.90;;;;;;5067742;28;20053;-73
2021/11/20 04:02:09;;;;;;;40.70;26.40;;;10.40;99.90;;;;;;5051151;28;20049;-74
2021/11/20 04:04:35;;;;;;;40.67;26.38;;;10.40;99.90;;;;;;5051348;28;20117;-74
2021/11/20 04:07:02;;;;;;;40.58;25.77;;;10.40;99.90;;;;;;5051493;28;20118;-74
2021/11/20 04:09:28;;;;;;;35.40;25.00;;;10.40;99.90;;;;;;5080901;28;20525;-73
2021/11/20 04:11:54;;;;;;;36.60;25.52;;;10.40;99.90;;;;;;5070828;28;20689;-73
2021/11/20 04:14:22;;;;;;;39.58;25.70;;;10.40;99.90;;;;;;5088031;28;20093;-73
2021/11/20 04:16:48;;;;;;;35.15;26.17;;;10.40;99.90;;;;;;5087928;28;20542;-73
2021/11/20 04:19:15;;;;;;;39.58;25.95;;;10.40;99.90;;;;;;5064059;28;20047;-73
2021/11/20 04:21:41;;;;;;;38.25;25.45;;;10.40;99.90;;;;;;5067606;28;20459;-73
2021/11/20 04:24:09;;;;;;;35.17;25.50;;;10.30;99.90;;;;;;5033838;28;20435;-73
2021/11/20 04:26:35;;;;;;;36.05;25.98;;;10.40;99.90;;;;;;5051004;28;20052;-74
2021/11/20 04:29:01;;;;;;;37.03;25.60;;;10.40;99.90;;;;;;5067693;28;20049;-73
2021/11/20 04:31:30;;;;;;;36.75;26.17;;;10.30;99.90;;;;;;5061785;28;20055;-73
2021/11/20 04:33:56;;;;;;;41.10;25.58;;;10.30;99.90;;;;;;5071264;28;20114;-73
2021/11/20 04:36:24;;;;;;;38.88;25.40;;;10.40;99.90;;;;;;5053873;28;20481;-73
2021/11/20 04:38:50;;;;;;;37.28;25.55;;;10.30;99.90;;;;;;5087878;28;20595;-73
2021/11/20 04:41:16;;;;;;;36.03;26.10;;;10.30;99.90;;;;;;5070428;28;20036;-73
2021/11/20 04:43:43;;;;;;;39.33;27.60;;;10.40;99.90;;;;;;5070890;28;20063;-73
2021/11/20 04:46:10;;;;;;;40.78;27.10;;;10.30;99.90;;;;;;5068003;28;20048;-73
2021/11/20 04:48:36;;;;;;;37.95;26.05;;;10.30;99.90;;;;;;5052783;28;20048;-73
2021/11/20 04:51:03;;;;;;;36.72;25.42;;;10.30;99.90;;;;;;5050949;28;20037;-74
2021/11/20 04:53:35;;;;;;;39.58;25.73;;;10.30;99.90;;;;;;5067208;28;20044;-73
2021/11/20 04:56:03;;;;;;;35.78;26.33;;;10.30;99.90;;;;;;5060352;28;20131;-73
2021/11/20 04:58:33;;;;;;;39.35;27.13;;;10.30;99.90;;;;;;5066804;28;20132;-73
2021/11/20 05:01:00;;;;;;;46.15;26.48;;;10.30;99.90;;;;;;5064229;28;20048;-73
2021/11/20 05:03:27;;;;;;;35.08;25.33;;;10.30;99.90;;;;;;5066845;28;20045;-73
2021/11/20 05:05:55;;;;;;;36.45;26.10;;;10.30;99.90;;;;;;5067749;28;20109;-74
2021/11/20 05:08:22;;;;;;;40.75;25.80;;;10.20;99.90;;;;;;5050112;28;20041;-73
2021/11/20 05:10:49;;;;;;;33.97;25.90;;;10.30;99.90;;;;;;5067584;28;20048;-73
2021/11/20 05:13:16;;;;;;;41.15;25.85;;;10.30;99.90;;;;;;5067413;28;20109;-73
2021/11/20 05:15:45;;;;;;;41.60;26.48;;;10.30;99.90;;;;;;5051092;28;20121;-73
2021/11/20 05:18:11;;;;;;;35.60;26.35;;;10.30;99.90;;;;;;5050507;28;20403;-73
2021/11/20 05:20:38;;;;;;;34.15;26.33;;;10.30;99.90;;;;;;5067614;28;20040;-74
2021/11/20 05:23:04;;;;;;;36.95;26.85;;;10.30;99.90;;;;;;5066979;28;20040;-73
2021/11/20 05:25:30;;;;;;;37.92;26.77;;;10.30;99.90;;;;;;5049977;28;20517;-73
2021/11/20 05:27:56;;;;;;;40.17;27.45;;;10.30;99.90;;;;;;5066794;28;20049;-73
2021/11/20 05:30:30;;;;;;;39.20;27.10;;;10.20;99.90;;;;;;5033256;28;20067;-73
2021/11/20 05:32:59;;;;;;;41.20;26.92;;;10.20;99.90;;;;;;5049680;28;20044;-73
2021/11/20 05:35:26;;;;;;;37.83;27.20;;;10.30;99.90;;;;;;5067337;28;20140;-73
2021/11/20 05:37:52;;;;;;;40.83;27.17;;;10.20;99.90;;;;;;5066619;28;20094;-73
2021/11/20 05:40:20;;;;;;;40.95;28.00;;;10.30;99.90;;;;;;5066516;28;20040;-73
2021/11/20 05:42:49;;;;;;;37.03;28.05;;;10.20;99.90;;;;;;5049679;28;20103;-73
2021/11/20 05:45:19;;;;;;;42.40;29.88;;;10.30;99.90;;;;;;5066391;28;20040;-73
2021/11/20 05:47:46;;;;;;;36.55;27.92;;;10.20;99.90;;;;;;5049527;28;20507;-73
2021/11/20 05:50:13;;;;;;;39.60;29.38;;;10.20;99.90;;;;;;5066396;28;20043;-73
2021/11/20 05:52:39;;;;;;;41.50;28.25;;;10.20;99.90;;;;;;5049547;28;20052;-73
2021/11/20 05:55:06;;;;;;;42.65;29.92;;;10.30;99.90;;;;;;5037917;28;20058;-74
2021/11/20 05:57:32;;;;;;;39.28;29.00;;;10.30;99.90;;;;;;5070041;28;20044;-74
2021/11/20 06:00:01;;;;;;;36.75;28.13;;;10.30;99.90;;;;;;5082980;28;20050;-73
2021/11/20 06:02:27;;;;;;;41.95;30.00;;;10.30;99.90;;;;;;5034070;28;20056;-73
2021/11/20 06:04:52;;;;;;;39.60;29.08;;;10.30;99.90;;;;;;5065744;28;20123;-74
2021/11/20 06:07:20;;;;;;;42.38;29.42;;;10.30;99.90;;;;;;5032874;28;20041;-74
2021/11/20 06:09:45;;;;;;;42.30;30.73;;;10.30;99.90;;;;;;5049743;28;20115;-74
2021/11/20 06:12:11;;;;;;;45.92;30.25;;;10.30;99.90;;;;;;5065803;28;20045;-74
2021/11/20 06:14:38;;;;;;;43.63;31.60;;;10.20;99.90;;;;;;5066623;28;20098;-74
2021/11/20 06:17:04;;;;;;;43.03;29.92;;;10.30;99.90;;;;;;5065838;28;20047;-74
2021/11/20 06:19:29;;;;;;;41.72;30.13;;;10.30;99.90;;;;;;5049615;28;20044;-73
2021/11/20 06:21:55;;;;;;;44.72;30.88;;;10.30;99.90;;;;;;5052459;28;20049;-74
2021/11/20 06:24:21;;;;;;;47.15;32.63;;;10.30;99.90;;;;;;5036109;28;20100;-73
2021/11/20 06:26:47;;;;;;;50.35;33.00;;;10.30;99.90;;;;;;5053661;28;20131;-73
2021/11/20 06:29:14;;;;;;;48.88;33.50;;;10.30;99.90;;;;;;5069707;28;20509;-74
2021/11/20 06:31:41;;;;;;;50.33;33.63;;;10.30;99.90;;;;;;5049528;28;20112;-74
2021/11/20 06:34:07;;;;;;;48.33;33.22;;;10.30;99.90;;;;;;5072727;28;20051;-74
2021/11/20 06:36:33;;;;;;;49.80;34.08;;;10.30;99.90;;;;;;5056328;28;20071;-74
2021/11/20 06:38:59;;;;;;;52.70;35.30;;;10.30;99.90;;;;;;5089684;28;20414;-74
2021/11/20 06:41:26;;;;;;;46.63;33.50;;;10.30;99.90;;;;;;5057018;28;20040;-74
2021/11/20 06:43:52;;;;;;;50.95;34.67;;;10.40;99.90;;;;;;5073242;28;20071;-74
2021/11/20 06:46:19;;;;;;;49.90;35.05;;;10.30;99.90;;;;;;5073338;28;20050;-74
2021/11/20 06:48:45;;;;;;;50.90;35.50;;;10.30;99.90;;;;;;5090085;28;20051;-74
2021/11/20 06:51:12;;;;;;;49.90;35.50;;;10.40;99.90;;;;;;5089674;28;20054;-74
2021/11/20 06:53:40;;;;;;;52.20;36.88;;;10.40;99.90;;;;;;5081334;28;20537;-74
2021/11/20 06:56:13;;;;;;;52.78;36.20;;;10.40;99.90;;;;;;5066550;28;20509;-73
2021/11/20 07:01:15;;;;;;;57.05;38.83;;;10.40;99.90;;;;;;5063948;28;20052;-73
2021/11/20 07:03:52;;;;;;;46.92;35.38;;;10.40;99.90;;;;;;5073118;28;20131;-74
2021/11/20 07:06:39;;;;;;;52.33;38.47;;;10.40;99.90;;;;;;5073956;28;20521;-74
2021/11/20 07:09:05;;;;;;;51.45;38.00;;;10.40;99.90;;;;;;5051741;28;20048;-73
2021/11/20 07:11:32;;;;;;;51.25;37.78;;;10.40;99.90;;;;;;5035373;28;20514;-73
2021/11/20 07:13:58;;;;;;;53.15;39.00;;;10.40;99.90;;;;;;5068860;28;20044;-74
2021/11/20 07:16:28;;;;;;;52.15;38.78;;;10.40;99.90;;;;;;5052446;28;20033;-73
2021/11/20 07:18:55;;;;;;;52.65;37.20;;;10.40;99.90;;;;;;5059000;28;20040;-73
2021/11/20 07:21:24;;;;;;;48.80;37.95;;;10.40;99.90;;;;;;5054029;28;20085;-74
2021/11/20 07:23:52;;;;;;;49.00;38.17;;;10.40;99.90;;;;;;5057000;28;20050;-74
2021/11/20 07:26:21;;;;;;;46.70;36.95;;;10.40;99.90;;;;;;5060729;28;20055;-74
2021/11/20 07:28:48;;;;;;;44.67;35.50;;;10.40;99.90;;;;;;5067206;28;20075;-73
2021/11/20 07:31:14;;;;;;;42.53;35.60;;;10.50;99.90;;;;;;5074270;28;20032;-74
2021/11/20 07:33:40;;;;;;;44.63;36.47;;;10.40;99.90;;;;;;5087336;28;20040;-74
2021/11/20 07:36:07;;;;;;;48.00;36.83;;;10.50;99.90;;;;;;5079506;28;20043;-74
2021/11/20 07:38:40;;;;;;;41.50;36.03;;;10.50;99.90;;;;;;5063076;28;20495;-73
2021/11/20 07:41:07;;;;;;;46.30;36.70;;;10.50;99.90;;;;;;5080025;28;20074;-73
2021/11/20 07:43:34;;;;;;;41.60;35.35;;;10.50;99.90;;;;;;5061226;28;20060;-74
2021/11/20 07:46:01;;;;;;;45.88;36.13;;;10.50;99.90;;;;;;5079357;28;20514;-74
2021/11/20 07:48:31;;;;;;;45.92;36.60;;;10.50;99.90;;;;;;5041792;28;20049;-73
2021/11/20 07:50:59;;;;;;;43.97;36.63;;;10.50;99.90;;;;;;5053600;28;20127;-73
2021/11/20 07:53:24;;;;;;;42.25;36.22;;;10.50;99.90;;;;;;5052951;28;20391;-72
2021/11/20 07:55:51;;;;;;;43.97;35.60;;;10.50;99.90;;;;;;5050414;28;20056;-73
2021/11/20 07:58:17;;;;;;;45.53;35.85;;;10.50;99.90;;;;;;5040131;28;20064;-73
2021/11/20 08:00:44;;;;;;;44.72;35.13;;;10.40;99.90;;;;;;5068060;28;20051;-72
2021/11/20 08:03:11;;;;;;;42.45;33.85;;;10.40;99.90;;;;;;5072441;28;20058;-72
2021/11/20 08:05:38;;;;;;;43.30;34.08;;;10.40;99.90;;;;;;5066030;28;20049;-72
2021/11/20 08:08:04;;;;;;;43.35;35.25;;;10.40;99.90;;;;;;5056150;28;20112;-73
2021/11/20 08:10:33;;;;;;;42.40;34.85;;;10.40;99.90;;;;;;5078994;28;20072;-71
2021/11/20 08:13:00;;;;;;;44.45;34.33;;;10.40;99.90;;;;;;5073201;28;20039;-72
2021/11/20 08:15:27;;;;;;;42.80;34.65;;;10.40;99.90;;;;;;5053955;28;20074;-72
2021/11/20 08:17:53;;;;;;;41.17;32.97;;;10.50;99.90;;;;;;5048183;28;20056;-72
2021/11/20 08:20:21;;;;;;;40.13;33.00;;;10.40;99.90;;;;;;5071518;28;20046;-71
2021/11/20 08:22:47;;;;;;;41.63;32.00;;;10.50;99.90;;;;;;5065167;28;20048;-71
2021/11/20 08:25:17;;;;;;;40.33;32.03;;;10.50;99.90;;;;;;5065638;28;20048;-72
2021/11/20 08:27:43;;;;;;;41.58;31.15;;;10.50;99.90;;;;;;5066340;28;20131;-72
2021/11/20 08:30:12;;;;;;;41.72;32.50;;;10.50;99.90;;;;;;5066425;28;20044;-72
2021/11/20 08:32:38;;;;;;;43.30;32.13;;;10.50;99.90;;;;;;5068609;28;20036;-72
2021/11/20 08:35:05;;;;;;;42.83;32.63;;;10.50;99.90;;;;;;5078954;28;20059;-72
2021/11/20 08:37:33;;;;;;;41.15;32.45;;;10.50;99.90;;;;;;5084049;28;20046;-71
2021/11/20 08:40:06;;;;;;;40.78;32.05;;;10.50;99.90;;;;;;5053991;28;20040;-71
2021/11/20 08:42:35;;;;;;;42.05;31.88;;;10.50;99.90;;;;;;5057068;28;20051;-72
2021/11/20 08:45:03;;;;;;;41.85;31.05;;;10.50;99.90;;;;;;5071077;28;20041;-72
2021/11/20 08:47:29;;;;;;;42.25;31.77;;;10.50;99.90;;;;;;5068968;28;20105;-72
2021/11/20 08:49:55;;;;;;;40.90;32.05;;;10.50;99.90;;;;;;5072689;28;20052;-71
2021/11/20 08:52:21;;;;;;;40.15;31.88;;;10.50;99.90;;;;;;5081326;28;20449;-72
2021/11/20 08:54:47;;;;;;;40.80;31.83;;;10.50;99.90;;;;;;5075603;28;20052;-72
2021/11/20 08:57:14;;;;;;;40.35;31.27;;;10.50;99.90;;;;;;5047387;28;20044;-72
2021/11/20 08:59:41;;;;;;;40.22;32.58;;;10.50;99.90;;;;;;5061027;28;20041;-72
2021/11/20 09:02:24;;;;;;;37.80;31.50;;;10.50;99.90;;;;;;5051803;28;20669;-72
2021/11/20 09:05:21;;;;;;;38.63;30.27;;;10.50;99.90;;;;;;5052003;28;20044;-72
2021/11/20 09:08:11;;;;;;;40.53;32.42;;;10.50;99.90;;;;;;5074253;28;20380;-71
2021/11/20 09:10:40;;;;;;;39.60;31.83;;;10.50;99.90;;;;;;5059227;28;20044;-72
2021/11/20 09:13:26;;;;;;;37.25;31.15;;;10.60;99.90;;;;;;5046548;28;20544;-72
2021/11/20 09:16:05;;;;;;;42.35;31.20;;;10.60;99.90;;;;;;5083338;28;20040;-72
2021/11/20 09:18:32;;;;;;;38.80;30.40;;;10.60;99.90;;;;;;5063835;28;20244;-72
2021/11/20 09:21:03;;;;;;;39.00;30.90;;;10.60;99.90;;;;;;5048960;28;20052;-72
2021/11/20 09:23:29;;;;;;;37.38;30.95;;;10.60;99.90;;;;;;5081195;28;20117;-72
2021/11/20 09:25:56;;;;;;;35.05;30.17;;;10.60;99.90;;;;;;5057253;28;20040;-72
2021/11/20 09:28:23;;;;;;;37.90;30.35;;;10.60;99.90;;;;;;5069512;28;20399;-72
2021/11/20 09:30:54;;;;;;;34.88;30.50;;;10.60;99.90;;;;;;5065953;28;20055;-72
2021/11/20 09:33:20;;;;;;;;;;;10.60;99.90;;;;;;5078056;28;20712;-72
2021/11/20 09:35:47;;;;;;;37.42;31.75;;;10.50;99.90;;;;;;5047334;28;19927;-72
2021/11/20 09:38:14;;;;;;;38.33;32.92;;;10.50;99.90;;;;;;5070888;28;20123;-72
2021/11/20 09:40:44;;;;;;;35.22;30.73;;;10.50;99.90;;;;;;5051532;28;20057;-72
2021/11/20 09:43:11;;;;;;;40.03;33.78;;;10.50;99.90;;;;;;5047998;28;20036;-73
2021/11/20 09:45:43;;;;;;;37.90;32.88;;;10.50;99.90;;;;;;5031063;28;20048;-72
2021/11/20 09:48:25;;;;;;;38.50;32.85;;;10.50;99.90;;;;;;5066825;28;20062;-72
2021/11/20 09:50:54;;;;;;;39.00;33.22;;;10.50;99.90;;;;;;5066444;28;20041;-73
2021/11/20 09:53:21;;;;;;;39.03;33.42;;;10.50;99.90;;;;;;5048984;28;20040;-72
2021/11/20 09:55:52;;;;;;;41.13;35.78;;;10.50;99.90;;;;;;5064222;28;20136;-73
2021/11/20 09:58:26;;;;;;;40.72;34.95;;;10.50;99.90;;;;;;5070005;28;20047;-72
2021/11/20 10:01:30;;;;;;;43.58;36.47;;;10.50;99.90;;;;;;5069643;28;20084;-72
2021/11/20 10:04:02;;;;;;;44.08;35.83;;;10.50;99.90;;;;;;5067276;28;20036;-72
2021/11/20 10:06:29;;;;;;;43.35;36.28;;;10.50;99.90;;;;;;5067336;28;20489;-72
2021/11/20 10:09:04;;;;;;;41.40;36.65;;;10.50;99.90;;;;;;5067854;28;20075;-72
2021/11/20 10:11:38;;;;;;;42.35;36.92;;;10.50;99.90;;;;;;5069887;28;20459;-72
2021/11/20 10:14:14;;;;;;;44.83;39.38;;;10.50;99.90;;;;;;5055906;28;20125;-73
2021/11/20 10:16:48;;;;;;;50.22;40.30;;;10.50;99.90;;;;;;5067919;28;20106;-72
2021/11/20 10:19:20;;;;;;;45.58;38.63;;;10.50;99.90;;;;;;5068111;28;20044;-72
2021/11/20 10:22:11;;;;;;;45.97;40.45;;;10.50;99.90;;;;;;5069954;28;20071;-72
2021/11/20 10:25:06;;;;;;;49.03;40.67;;;10.40;99.90;;;;;;5084927;28;20558;-72
2021/11/20 10:27:43;;;;;;;44.13;39.33;;;10.50;99.90;;;;;;5068171;28;20505;-72
2021/11/20 10:30:27;;;;;;;45.85;40.85;;;10.40;99.90;;;;;;5050026;28;20407;-72
2021/11/20 10:32:55;;;;;;;46.92;39.22;;;10.40;99.90;;;;;;5080834;28;20495;-72
2021/11/20 10:35:21;;;;;;;47.88;40.60;;;10.50;99.90;;;;;;5052121;28;20075;-72
2021/11/20 10:38:16;;;;;;;48.40;41.47;;;10.50;99.90;;;;;;5075881;28;20083;-72
2021/11/20 10:40:54;;;;;;;49.80;42.70;;;10.50;99.90;;;;;;5078202;28;20051;-72
2021/11/20 10:43:35;;;;;;;47.47;40.15;;;10.50;99.90;;;;;;5059713;28;20044;-72
2021/11/20 10:46:18;;;;;;;46.20;39.97;;;10.50;99.90;;;;;;5055199;28;20040;-72
2021/11/20 10:49:05;;;;;;;49.92;42.33;;;10.50;99.90;;;;;;5071814;28;20108;-72
2021/11/20 10:51:52;;;;;;;47.78;41.40;;;10.50;99.90;;;;;;5076929;28;20491;-72
2021/11/20 10:54:48;;;;;;;50.72;42.50;;;10.50;99.90;;;;;;5076898;28;20615;-72
2021/11/20 10:57:42;;;;;;;49.45;42.92;;;10.50;99.90;;;;;;5057489;28;20059;-72
2021/11/20 11:00:30;;;;;;;50.95;42.70;;;10.50;99.90;;;;;;5068419;28;20421;-72
2021/11/20 11:03:25;;;;;;;50.95;42.67;;;10.50;99.90;;;;;;5072934;28;20388;-72
2021/11/20 11:06:16;;;;;;;53.17;43.55;;;10.50;99.90;;;;;;5061801;28;20105;-72
2021/11/20 11:09:02;;;;;;;52.58;42.65;;;10.50;99.90;;;;;;5053152;28;20511;-72
2021/11/20 11:11:34;;;;;;;53.47;43.50;;;10.50;99.90;;;;;;5058004;28;20090;-73
2021/11/20 11:14:11;;;;;;;56.67;46.15;;;10.50;99.90;;;;;;5057501;28;20055;-72
2021/11/20 11:16:39;;;;;;;56.47;45.53;;;10.50;99.90;;;;;;5057878;28;20492;-72
2021/11/20 11:19:35;;;;;;;60.83;46.95;;;10.50;99.90;;;;;;5054934;28;20487;-73
2021/11/20 11:22:09;;;;;;;61.05;48.25;;;10.40;99.90;;;;;;5074601;28;20046;-73
2021/11/20 11:24:56;;;;;;;65.68;49.08;;;10.40;99.90;;;;;;5077567;28;20082;-73
2021/11/20 11:27:37;;;;;;;66.93;50.38;;;10.40;99.90;;;;;;5056137;28;20067;-73
2021/11/20 11:30:22;;;;;;;64.50;49.28;;;10.40;99.90;;;;;;5063348;28;20058;-73
2021/11/20 11:32:48;;;;;;;66.28;50.25;;;10.40;99.90;;;;;;5056382;28;20037;-73
2021/11/20 11:35:20;;;;;;;72.93;53.40;;;10.40;99.90;;;;;;5054463;28;20051;-73
2021/11/20 11:38:07;;;;;;;70.55;50.05;;;10.30;99.90;;;;;;5076221;28;20496;-73
2021/11/20 11:40:53;;;;;;;71.40;51.15;;;10.30;99.90;;;;;;5060785;28;20052;-73
2021/11/20 11:43:41;;;;;;;77.22;53.75;;;10.30;99.90;;;;;;5079026;28;20059;-73
2021/11/20 11:46:25;;;;;;;80.38;54.83;;;10.20;99.90;;;;;;5080647;28;20043;-73
2021/11/20 11:48:57;;;;;;;80.75;53.03;;;10.20;99.90;;;;;;5068461;28;20045;-73
2021/11/20 11:52:02;;;;;;;82.43;54.85;;;10.20;99.90;;;;;;5065455;28;20036;-73
2021/11/20 11:55:00;;;;;;;81.63;53.70;;;10.20;99.90;;;;;;5035479;28;20192;-73
2021/11/20 11:57:45;;;;;;;88.68;56.13;;;10.10;99.90;;;;;;5060003;28;20525;-73
2021/11/20 12:00:36;;;;;;;96.28;56.60;;;10.10;99.90;;;;;;5059786;28;20052;-73
2021/11/20 12:03:26;;;;;;;96.60;57.22;;;10.10;99.90;;;;;;5070005;28;20040;-74
2021/11/20 12:06:12;;;;;;;;;;;10.00;99.90;;;;;;5056990;28;20052;-73
2021/11/20 12:08:43;;;;;;;96.70;57.20;;;10.00;99.90;;;;;;5057380;28;20623;-73
2021/11/20 12:11:11;;;;;;;100.40;57.45;;;10.00;99.90;;;;;;5057818;28;20048;-73
2021/11/20 12:13:45;;;;;;;101.90;55.60;;;10.00;99.90;;;;;;5079470;28;20063;-74
2021/11/20 12:16:35;;;;;;;94.47;54.67;;;10.00;99.90;;;;;;5067394;28;20098;-73
2021/11/20 12:19:48;;;;;;;99.35;56.97;;;10.00;99.90;;;;;;5065581;28;20143;-73
2021/11/20 12:22:34;;;;;;;94.13;55.97;;;10.10;99.90;;;;;;5051047;28;20146;-73
2021/11/20 12:25:07;;;;;;;99.05;56.63;;;10.10;99.90;;;;;;5070687;28;20418;-73
2021/11/20 12:27:48;;;;;;;101.25;56.63;;;10.10;99.90;;;;;;5070406;28;20474;-73
2021/11/20 12:30:25;;;;;;;94.90;53.15;;;10.10;99.90;;;;;;5073292;28;20470;-74
2021/11/20 12:33:26;;;;;;;99.30;55.35;;;10.10;99.90;;;;;;5073671;28;20124;-73
2021/11/20 12:36:16;;;;;;;97.38;55.40;;;10.10;99.90;;;;;;5068301;28;20515;-73
2021/11/20 12:39:05;;;;;;;94.97;53.20;;;10.10;99.90;;;;;;5077848;28;20056;-74
2021/11/20 12:41:40;;;;;;;102.25;55.58;;;10.10;99.90;;;;;;5074189;28;20097;-73
2021/11/20 12:44:17;;;;;;;107.63;57.13;;;10.10;99.90;;;;;;5059502;28;20055;-73
2021/11/20 12:47:20;;;;;;;98.60;55.67;;;10.10;99.90;;;;;;5074105;28;20044;-73
2021/11/20 12:50:01;;;;;;;103.00;54.88;;;10.10;99.90;;;;;;5050643;28;20048;-72
2021/11/20 12:52:33;;;;;;;102.82;54.90;;;10.20;99.90;;;;;;5073854;28;20048;-72
2021/11/20 12:55:18;;;;;;;96.13;53.92;;;10.20;99.90;;;;;;5067111;28;20139;-72
2021/11/20 12:58:13;;;;;;;103.13;53.30;;;10.20;99.90;;;;;;5073036;28;20056;-73